Wednesday, November 14, 2018, 6:46 AM GMT
Back to Local

CYRJ, Roberval, Que.

Location: , , Canada Lat: 48.517
Local Time: 6:46 AM GMT ( 6:46 GMT) Lon: -72.267
Time Zone: GMT Elev: 587 ft

Show me the last for .
Show Decoded

2018-11-14 06:18 METAR CYRJ 140618Z 30013G27KT 20SM OVC035 M14/M19 A2992 RMK SC8 SLP146 =
2018-11-14 06:00 METAR CYRJ 140600Z 31019G30KT 12SM -SN DRSN OVC035 M14/M19 A2991 RMK SC8 /S01/
                 SLP142 =
2018-11-14 05:19 METAR CYRJ 140519Z 29012G24KT 20SM OVC037 M13/M19 A2990 RMK SC8 SLP140 =
2018-11-14 05:00 METAR CYRJ 140500Z 30011G22KT 12SM -SN BKN039 M13/M18 A2990 RMK SC7 SLP139 =
2018-11-14 04:00 METAR CYRJ 140400Z 30020G29KT 12SM -SN OVC035 M12/M17 A2988 RMK SC8 SLP132 =
2018-11-14 03:00 METAR CYRJ 140300Z 30012G22KT 3SM -SN OVC027 M12/M16 A2988 RMK SC8 SLP132 =
2018-11-14 02:00 METAR CYRJ 140200Z 30016G25KT 1SM -SN VV011 M12/M14 A2985 RMK SN8 SLP124 =
2018-11-14 01:00 METAR CYRJ 140100Z 31020G26KT 1SM -SN VV030 M11/M14 A2984 RMK SN8 SLP119 =
2018-11-14 00:00 METAR CYRJ 140000Z 30023G31KT 1SM -SN VV025 M10/M12 A2982 RMK SN8 SLP113 =
2018-11-13 23:46 METAR CYRJ 132346Z 31019G27KT 1SM -SN VV025 M09/M11 A2982 RMK SN8 SLP113 =
2018-11-13 23:08 METAR CYRJ 132308Z 31021G27KT 1/2SM SN VV010 M08/M09 A2981 RMK SN8 VIS VRB
                 1/4-3/4 SLP110 =
2018-11-13 23:00 METAR CYRJ 132300Z 30017G27KT 1SM -SN VV011 M07/M09 A2981 RMK SN8 SLP108 =
2018-11-13 22:46 METAR CYRJ 132246Z 30020G27KT 1SM -SN VV012 M07/M09 A2981 RMK SN8 SLP108 =
2018-11-13 22:00 METAR CYRJ 132200Z 31018G24KT 1SM -SN VV020 M06/M08 A2980 RMK SN8 SLP105 =
2018-11-13 21:32 METAR CYRJ 132132Z 30015G21KT 1SM -SN VV020 M05/M07 A2981 RMK SN8 SLP106 =
2018-11-13 21:00 METAR CYRJ 132100Z 31014G22KT 1SM -SN VV008 M04/M05 A2981 RMK SN8 CIG VRB 6-10
                 SLP107 =
2018-11-13 20:00 METAR CYRJ 132000Z 34006KT 1SM -SN VV005 M01/M02 A2982 RMK SN8 CIG VRB 3-7
                 SLP110 =
2018-11-13 19:12 METAR CYRJ 131912Z 34007KT 1SM -SN VV006 M01/M02 A2984 RMK SN8 CIG VRB 4-8
                 SLP118 =
2018-11-13 19:00 METAR CYRJ 131900Z 35004KT 1SM -SN VV003 M01/M01 A2985 RMK SN8 CIG VRB 2-4
                 SLP121 =
2018-11-13 18:26 METAR CYRJ 131826Z VRB02KT 1SM -SN VV003 M01/M01 A2987 RMK SN8 SLP126 =
2018-11-13 18:00 METAR CYRJ 131800Z 06003KT 030V090 2SM -SN OVC006 M01/M01 A2988 RMK SN2SF6 CIG
                 VRB 4-8 SLP131 =
2018-11-13 17:00 METAR CYRJ 131700Z 07002KT 2SM -SN BKN014 OVC024 M01/M01 A2992 RMK SN2SF5SC1
                 /S01/ SLP143 =
2018-11-13 16:20 METAR CYRJ 131620Z 06003KT 2SM -SN BKN016 OVC025 M01/M02 A2995 RMK SN2SF5SC1
                 PRESFR SLP153 =
2018-11-13 16:00 METAR CYRJ 131600Z 08002KT 3SM -SN SCT013 OVC024 M01/M02 A2996 RMK SF4SC4 SLP160
                 =
2018-11-13 15:27 METAR CYRJ 131527Z 00000KT 3SM -SN FEW012 OVC023 M01/M02 A2998 RMK SF2SC6 SLP165
                 =
2018-11-13 15:00 METAR CYRJ 131500Z VRB02KT 2SM -SN SCT008 OVC030 M01/M02 A2999 RMK SN2SF1SC5
                 SLP170 =
2018-11-13 14:52 METAR CYRJ 131452Z 00000KT 2SM -SN SCT008 OVC030 M01/M02 A3000 RMK SN2SF1SC5
                 SLP172 =
2018-11-13 14:27 METAR CYRJ 131427Z 00000KT 3/4SM -SN VV016 M01/M02 A3001 RMK SN8 SLP176 =
2018-11-13 14:00 METAR CYRJ 131400Z 06002KT 1 1/2SM -SN OVC020 M02/M02 A3002 RMK SN4SC4 SLP180 =
2018-11-13 13:00 METAR CYRJ 131300Z 09002KT 2SM -SN OVC035 M02/M03 A3005 RMK SN2SC6 SLP188 =
2018-11-13 12:00 METAR CYRJ 131200Z 07002KT 2SM -SN OVC053 M03/M03 A3006 RMK SN2SC6 SLP193 =
2018-11-13 11:00 METAR CYRJ 131100Z VRB02KT 2SM -SN OVC037 M03/M04 A3009 RMK SN3SC5 SLP203 =
2018-11-13 10:28 METAR CYRJ 131028Z 07003KT 2SM -SN OVC036 M03/M04 A3008 RMK SN3SC5 SLP202 =
2018-11-13 10:00 METAR CYRJ 131000Z 10003KT 3SM -SHSN OVC043 M04/M05 A3009 RMK SC8 SLP205 =
2018-11-13 09:29 METAR CYRJ 130929Z 13003KT 20SM -SHSN OVC060 M04/M05 A3010 RMK SC8 SLP208 =
2018-11-13 09:00 METAR CYRJ 130900Z 14002KT 25SM OVC057 M04/M05 A3011 RMK SC8 SLP212 =
2018-11-13 08:00 METAR CYRJ 130800Z 13003KT 25SM -SN SCT033 OVC064 M05/M06 A3015 RMK SC3SC5
                 SLP224 =
2018-11-13 07:43 METAR CYRJ 130743Z 15004KT 25SM -SN SCT034 OVC069 M05/M06 A3016 RMK SC4AC4
                 SLP227 =
2018-11-13 07:00 METAR CYRJ 130700Z 15004KT 25SM OVC074 M05/M07 A3018 RMK AC8 SLP232 =

Support USWX by starting your Amazon purchase here.